createdAt,value
2018-03-04T00:00:14.306Z,0
2018-03-04T00:01:23.534Z,0
2018-03-04T00:02:33.272Z,0
2018-03-04T00:03:43.009Z,0
2018-03-04T00:04:52.469Z,0
2018-03-04T00:06:02.468Z,0
2018-03-04T00:07:12.520Z,0
2018-03-04T00:08:22.522Z,0
2018-03-04T00:09:32.296Z,0
2018-03-04T00:10:42.276Z,0
2018-03-04T00:11:51.779Z,0
2018-03-04T00:13:01.545Z,0
2018-03-04T00:14:11.020Z,0
2018-03-04T00:15:21.060Z,0
2018-03-04T00:16:30.793Z,0
2018-03-04T00:17:40.530Z,0
2018-03-04T00:18:50.011Z,0
2018-03-04T00:20:00.022Z,0
2018-03-04T00:21:09.769Z,0
2018-03-04T00:22:19.495Z,0
2018-03-04T00:23:29.512Z,0
2018-03-04T00:24:38.992Z,0
2018-03-04T00:25:48.714Z,0
2018-03-04T00:26:58.488Z,0
2018-03-04T00:28:08.495Z,0
2018-03-04T00:29:18.498Z,0
2018-03-04T00:30:28.237Z,0
2018-03-04T00:31:37.977Z,0
2018-03-04T00:32:47.693Z,0
2018-03-04T00:33:57.430Z,0
2018-03-04T00:35:07.444Z,0
2018-03-04T00:36:16.917Z,0
2018-03-04T00:37:26.911Z,0
2018-03-04T00:38:36.895Z,0
2018-03-04T00:39:46.392Z,0
2018-03-04T00:40:55.863Z,0
2018-03-04T00:42:05.606Z,0
2018-03-04T00:43:15.352Z,0
2018-03-04T00:44:25.408Z,0
2018-03-04T00:45:35.137Z,0
2018-03-04T00:46:44.596Z,0
2018-03-04T00:47:54.065Z,0
2018-03-04T00:49:03.789Z,0
2018-03-04T00:50:13.798Z,0
2018-03-04T00:51:23.804Z,0
2018-03-04T00:52:33.541Z,0
2018-03-04T00:53:43.533Z,0
2018-03-04T00:54:53.509Z,0
2018-03-04T00:56:03.500Z,0
2018-03-04T00:57:13.209Z,0
2018-03-04T00:58:23.200Z,0
2018-03-04T00:59:32.671Z,0
2018-03-04T01:00:42.658Z,0
2018-03-04T01:01:52.653Z,0
2018-03-04T01:03:02.641Z,0
2018-03-04T01:04:12.379Z,0
2018-03-04T01:05:21.860Z,0
2018-03-04T01:06:31.880Z,0
2018-03-04T01:07:41.890Z,0
2018-03-04T01:08:51.894Z,0
2018-03-04T01:10:01.366Z,0
2018-03-04T01:11:11.334Z,0
2018-03-04T01:12:21.332Z,0
2018-03-04T01:13:31.107Z,0
2018-03-04T01:14:41.132Z,0
2018-03-04T01:15:51.122Z,0
2018-03-04T01:17:01.122Z,0
2018-03-04T01:18:10.863Z,0
2018-03-04T01:19:20.856Z,0
2018-03-04T01:20:30.573Z,0
2018-03-04T01:21:40.050Z,0
2018-03-04T01:22:50.032Z,0
2018-03-04T01:24:00.049Z,0
2018-03-04T01:25:09.298Z,0
2018-03-04T01:26:19.033Z,0
2018-03-04T01:27:29.006Z,0
2018-03-04T01:28:38.994Z,0
2018-03-04T01:29:48.477Z,0
2018-03-04T01:30:58.218Z,0
2018-03-04T01:32:07.959Z,0
2018-03-04T01:33:17.958Z,0
2018-03-04T01:34:27.179Z,0
2018-03-04T01:35:37.171Z,0
2018-03-04T01:36:46.892Z,0
2018-03-04T01:37:56.625Z,0
2018-03-04T01:39:06.622Z,0
2018-03-04T01:40:16.616Z,0
2018-03-04T01:41:26.620Z,0
2018-03-04T01:42:36.655Z,0
2018-03-04T01:43:46.645Z,0
2018-03-04T01:44:56.380Z,0
2018-03-04T01:46:05.853Z,0
2018-03-04T01:47:15.586Z,0
2018-03-04T01:48:25.585Z,0
2018-03-04T01:49:35.305Z,0
2018-03-04T01:50:45.304Z,0
2018-03-04T01:51:55.032Z,0
2018-03-04T01:53:05.022Z,0
2018-03-04T01:54:15.026Z,0
2018-03-04T01:55:25.022Z,0
2018-03-04T01:56:35.023Z,0
2018-03-04T01:57:44.786Z,0
2018-03-04T01:58:54.540Z,0
2018-03-04T02:00:04.323Z,0
2018-03-04T02:01:13.557Z,0
2018-03-04T02:02:23.318Z,0
2018-03-04T02:03:33.320Z,0
2018-03-04T02:04:43.299Z,0
2018-03-04T02:05:53.282Z,0
2018-03-04T02:07:03.030Z,0
2018-03-04T02:08:12.750Z,0
2018-03-04T02:09:22.491Z,0
2018-03-04T02:10:32.719Z,0
2018-03-04T02:11:42.439Z,0
2018-03-04T02:12:51.925Z,0
2018-03-04T02:14:01.933Z,0
2018-03-04T02:15:11.656Z,0
2018-03-04T02:16:21.388Z,0
2018-03-04T02:17:31.115Z,0
2018-03-04T02:18:40.846Z,0
2018-03-04T02:19:50.573Z,0
2018-03-04T02:21:00.565Z,0
2018-03-04T02:22:10.041Z,0
2018-03-04T02:23:19.791Z,0
2018-03-04T02:24:29.557Z,0
2018-03-04T02:25:39.282Z,0
2018-03-04T02:26:48.750Z,0
2018-03-04T02:27:58.732Z,0
2018-03-04T02:29:08.718Z,0
2018-03-04T02:30:18.743Z,0
2018-03-04T02:31:28.735Z,0
2018-03-04T02:32:38.478Z,0
2018-03-04T02:33:47.944Z,0
2018-03-04T02:34:57.726Z,0
2018-03-04T02:36:07.780Z,0
2018-03-04T02:37:17.790Z,0
2018-03-04T02:38:27.783Z,0
2018-03-04T02:39:37.767Z,0
2018-03-04T02:40:47.761Z,0
2018-03-04T02:41:57.774Z,0
2018-03-04T02:43:07.516Z,0
2018-03-04T02:44:17.249Z,0
2018-03-04T02:45:26.986Z,0
2018-03-04T02:46:37.008Z,0
2018-03-04T02:47:46.753Z,0
2018-03-04T02:48:56.477Z,0
2018-03-04T02:50:05.948Z,0
2018-03-04T02:51:15.947Z,0
2018-03-04T02:52:25.967Z,0
2018-03-04T02:53:35.434Z,0
2018-03-04T02:54:45.428Z,0
2018-03-04T02:55:55.412Z,0
2018-03-04T02:57:04.897Z,0
2018-03-04T02:58:14.370Z,0
2018-03-04T02:59:24.101Z,0
2018-03-04T03:00:34.092Z,0
2018-03-04T03:01:44.081Z,0
2018-03-04T03:02:53.846Z,0
2018-03-04T03:04:03.851Z,0
2018-03-04T03:05:13.855Z,0
2018-03-04T03:06:31.464Z,0
2018-03-04T03:07:41.465Z,0
2018-03-04T03:08:50.971Z,0
2018-03-04T03:40:11.844Z,0
2018-03-04T03:41:21.822Z,0
2018-03-04T03:42:31.533Z,0
2018-03-04T03:43:41.508Z,0
2018-03-04T03:44:51.495Z,0
2018-03-04T03:46:01.492Z,0
2018-03-04T03:47:10.953Z,0
2018-03-04T03:48:20.935Z,0
2018-03-04T03:49:30.659Z,0
2018-03-04T03:50:40.630Z,0
2018-03-04T03:51:50.624Z,0
2018-03-04T03:53:00.608Z,0
2018-03-04T03:54:10.075Z,0
2018-03-04T03:55:20.065Z,0
2018-03-04T03:56:29.805Z,0
2018-03-04T03:57:39.897Z,0
2018-03-04T03:58:49.903Z,0
2018-03-04T03:59:59.660Z,0
2018-03-04T04:01:09.662Z,0
2018-03-04T04:02:19.382Z,0
2018-03-04T04:03:28.599Z,0
2018-03-04T04:04:38.352Z,0
2018-03-04T04:05:48.082Z,0
2018-03-04T04:06:57.815Z,0
2018-03-04T04:08:07.555Z,0
2018-03-04T04:09:17.648Z,0
2018-03-04T04:10:27.115Z,0
2018-03-04T04:11:36.601Z,0
2018-03-04T04:12:46.326Z,0
2018-03-04T04:13:55.794Z,0
2018-03-04T04:15:05.837Z,0
2018-03-04T04:16:15.044Z,0
2018-03-04T04:17:25.030Z,0
2018-03-04T04:18:35.026Z,0
2018-03-04T04:19:45.023Z,0
2018-03-04T04:20:55.101Z,0
2018-03-04T04:22:04.591Z,0
2018-03-04T04:23:14.330Z,0
2018-03-04T04:24:24.319Z,0
2018-03-04T04:25:34.314Z,0
2018-03-04T04:26:44.364Z,0
2018-03-04T04:27:54.375Z,0
2018-03-04T04:29:04.431Z,0
2018-03-04T04:30:14.158Z,0
2018-03-04T04:31:24.151Z,0
2018-03-04T04:32:34.142Z,0
2018-03-04T04:33:44.136Z,0
2018-03-04T04:34:54.125Z,0
2018-03-04T04:36:04.117Z,0
2018-03-04T04:37:14.116Z,0
2018-03-04T04:38:24.097Z,0
2018-03-04T04:39:33.812Z,0
2018-03-04T04:40:43.529Z,0
2018-03-04T04:41:53.245Z,0
2018-03-04T04:43:02.737Z,0
2018-03-04T04:44:12.206Z,0
2018-03-04T04:45:22.210Z,0
2018-03-04T04:46:31.941Z,0
2018-03-04T04:47:41.679Z,0
2018-03-04T04:48:51.666Z,0
2018-03-04T04:50:01.404Z,0
2018-03-04T04:51:11.414Z,0
2018-03-04T04:52:21.408Z,0
2018-03-04T04:53:31.148Z,0
2018-03-04T04:54:40.620Z,0
2018-03-04T04:55:50.598Z,0
2018-03-04T04:57:00.583Z,0
2018-03-04T04:58:10.626Z,0
2018-03-04T04:59:20.664Z,0
2018-03-04T05:00:30.190Z,0
2018-03-04T05:01:39.452Z,0
2018-03-04T05:02:49.515Z,0
2018-03-04T05:03:59.291Z,0
2018-03-04T05:05:09.346Z,0
2018-03-04T05:06:19.139Z,0
2018-03-04T05:07:28.651Z,0
2018-03-04T05:08:38.712Z,0
2018-03-04T05:09:48.502Z,0
2018-03-04T05:10:58.562Z,0
2018-03-04T05:12:08.373Z,0
2018-03-04T05:13:18.434Z,0
2018-03-04T05:14:28.212Z,0
2018-03-04T05:15:37.747Z,0
2018-03-04T05:16:47.279Z,0
2018-03-04T05:17:56.560Z,0
2018-03-04T05:19:06.673Z,0
2018-03-04T05:20:16.469Z,0
2018-03-04T05:21:26.518Z,0
2018-03-04T05:22:36.572Z,0
2018-03-04T05:23:46.095Z,0
2018-03-04T05:24:55.888Z,0
2018-03-04T05:26:05.673Z,5
2018-03-04T05:27:15.734Z,5
2018-03-04T05:28:25.541Z,5
2018-03-04T05:29:35.607Z,5
2018-03-04T05:30:48.092Z,5
2018-03-04T05:31:58.456Z,5
2018-03-04T05:33:07.983Z,5
2018-03-04T05:34:17.507Z,5
2018-03-04T05:35:27.308Z,5
2018-03-04T05:36:37.350Z,5
2018-03-04T05:37:47.397Z,5
2018-03-04T05:38:57.182Z,5
2018-03-04T05:40:06.729Z,5
2018-03-04T05:41:16.242Z,5
2018-03-04T05:42:26.341Z,10
2018-03-04T05:43:35.894Z,10
2018-03-04T05:44:45.940Z,10
2018-03-04T05:45:55.988Z,10
2018-03-04T05:47:05.778Z,10
2018-03-04T05:48:15.842Z,10
2018-03-04T05:49:25.412Z,15
2018-03-04T05:50:35.264Z,15
2018-03-04T05:51:45.315Z,15
2018-03-04T05:52:55.128Z,15
2018-03-04T05:54:04.928Z,15
2018-03-04T05:55:14.708Z,15
2018-03-04T05:56:24.768Z,15
2018-03-04T05:57:34.825Z,20
2018-03-04T05:58:44.716Z,20
2018-03-04T05:59:54.556Z,20
2018-03-04T06:01:04.143Z,20
2018-03-04T06:02:13.950Z,20
2018-03-04T06:03:23.739Z,20
2018-03-04T06:04:33.800Z,25
2018-03-04T06:05:43.906Z,25
2018-03-04T06:06:53.969Z,25
2018-03-04T06:08:03.761Z,25
2018-03-04T06:09:13.288Z,25
2018-03-04T06:10:23.346Z,30
2018-03-04T06:11:33.429Z,30
2018-03-04T06:12:43.845Z,30
2018-03-04T06:13:53.268Z,30
2018-03-04T06:15:03.318Z,30
2018-03-04T06:16:13.394Z,35
2018-03-04T06:17:23.243Z,35
2018-03-04T06:18:33.284Z,35
2018-03-04T06:19:42.809Z,35
2018-03-04T06:20:52.612Z,35
2018-03-04T06:22:02.402Z,35
2018-03-04T06:23:12.249Z,40
2018-03-04T06:24:22.046Z,40
2018-03-04T06:25:32.098Z,40
2018-03-04T06:26:41.627Z,40
2018-03-04T06:27:51.423Z,45
2018-03-04T06:29:01.272Z,45
2018-03-04T06:30:11.335Z,50
2018-03-04T06:31:21.387Z,50
2018-03-04T06:32:31.434Z,50
2018-03-04T06:33:41.496Z,50
2018-03-04T06:34:51.578Z,55
2018-03-04T06:36:01.379Z,60
2018-03-04T06:37:11.177Z,60
2018-03-04T06:38:20.454Z,60
2018-03-04T06:39:30.225Z,70
2018-03-04T06:40:40.295Z,70
2018-03-04T06:41:49.826Z,70
2018-03-04T06:42:59.880Z,75
2018-03-04T06:44:09.940Z,75
2018-03-04T06:45:19.477Z,80
2018-03-04T06:46:29.554Z,80
2018-03-04T06:47:39.332Z,85
2018-03-04T06:48:49.132Z,85
2018-03-04T06:49:58.996Z,85
2018-03-04T06:51:09.077Z,90
2018-03-04T06:52:18.656Z,90
2018-03-04T06:53:28.721Z,90
2018-03-04T06:54:38.575Z,90
2018-03-04T06:55:48.370Z,95
2018-03-04T06:56:58.441Z,95
2018-03-04T06:58:08.547Z,100
2018-03-04T06:59:18.604Z,100
2018-03-04T07:00:28.665Z,105
2018-03-04T07:01:38.718Z,110
2018-03-04T07:02:48.754Z,110
2018-03-04T07:03:58.860Z,110
2018-03-04T07:05:08.907Z,115
2018-03-04T07:06:18.709Z,115
2018-03-04T07:07:28.231Z,115
2018-03-04T07:08:37.768Z,115
2018-03-04T07:09:47.811Z,105
2018-03-04T07:10:57.592Z,100
2018-03-04T07:12:07.382Z,105
2018-03-04T07:13:17.204Z,110
2018-03-04T07:14:27.007Z,125
2018-03-04T07:15:36.847Z,130
2018-03-04T07:16:46.924Z,130
2018-03-04T07:17:56.464Z,130
2018-03-04T07:19:06.249Z,130
2018-03-04T07:20:16.055Z,130
2018-03-04T07:21:26.127Z,130
2018-03-04T07:22:36.190Z,125
2018-03-04T07:23:46.258Z,120
2018-03-04T07:24:56.057Z,115
2018-03-04T07:26:05.863Z,110
2018-03-04T07:27:15.913Z,105
2018-03-04T07:28:25.187Z,110
2018-03-04T07:29:34.776Z,115
2018-03-04T07:30:44.291Z,115
2018-03-04T07:31:54.342Z,115
2018-03-04T07:33:04.188Z,115
2018-03-04T07:34:13.721Z,120
2018-03-04T07:35:23.521Z,125
2018-03-04T07:36:33.621Z,130
2018-03-04T07:37:43.451Z,135
2018-03-04T07:38:53.285Z,135
2018-03-04T07:40:03.354Z,135
2018-03-04T07:41:13.389Z,145
2018-03-04T07:42:23.183Z,155
2018-03-04T07:43:32.985Z,165
2018-03-04T07:44:43.038Z,170
2018-03-04T07:45:52.823Z,175
2018-03-04T07:47:02.394Z,180
2018-03-04T07:48:12.209Z,175
2018-03-04T07:49:22.274Z,180
2018-03-04T07:50:32.407Z,180
2018-03-04T07:51:42.468Z,185
2018-03-04T07:52:52.520Z,185
2018-03-04T07:54:02.567Z,185
2018-03-04T07:55:12.370Z,185
2018-03-04T07:56:21.954Z,180
2018-03-04T07:57:32.004Z,175
2018-03-04T07:58:42.052Z,165
2018-03-04T07:59:52.136Z,150
2018-03-04T08:01:01.947Z,140
2018-03-04T08:02:11.752Z,145
2018-03-04T08:03:21.794Z,145
2018-03-04T08:04:31.333Z,155
2018-03-04T08:05:41.384Z,160
2018-03-04T08:06:51.165Z,170
2018-03-04T08:08:01.300Z,175
2018-03-04T08:09:11.379Z,180
2018-03-04T08:10:21.468Z,185
2018-03-04T08:11:30.873Z,185
2018-03-04T08:12:40.672Z,195
2018-03-04T08:13:50.786Z,195
2018-03-04T08:15:00.589Z,190
2018-03-04T08:16:10.116Z,190
2018-03-04T08:17:20.183Z,195
2018-03-04T08:18:30.272Z,190
2018-03-04T08:19:40.091Z,195
2018-03-04T08:20:49.641Z,190
2018-03-04T08:21:59.695Z,205
2018-03-04T08:23:09.219Z,210
2018-03-04T08:24:19.398Z,205
2018-03-04T08:25:29.487Z,210
2018-03-04T08:26:39.546Z,215
2018-03-04T08:27:48.838Z,200
2018-03-04T08:28:58.636Z,175
2018-03-04T08:30:08.448Z,160
2018-03-04T08:31:18.582Z,160
2018-03-04T08:32:28.370Z,155
2018-03-04T08:33:38.442Z,155
2018-03-04T08:34:48.224Z,155
2018-03-04T08:35:58.050Z,160
2018-03-04T08:37:08.102Z,165
2018-03-04T08:38:18.162Z,160
2018-03-04T08:39:28.224Z,170
2018-03-04T08:40:38.336Z,175
2018-03-04T08:41:48.131Z,170
2018-03-04T08:42:58.320Z,185
2018-03-04T08:44:08.123Z,180
2018-03-04T08:45:18.216Z,170
2018-03-04T08:46:28.009Z,185
2018-03-04T08:47:37.808Z,185
2018-03-04T08:48:47.906Z,200
2018-03-04T08:49:57.711Z,190
2018-03-04T08:51:07.272Z,180
2018-03-04T08:52:17.335Z,175
2018-03-04T08:53:27.417Z,175
2018-03-04T08:54:37.558Z,170
2018-03-04T08:55:47.379Z,165
2018-03-04T08:56:57.468Z,165
2018-03-04T08:58:07.020Z,175
2018-03-04T08:59:16.838Z,180
2018-03-04T09:00:26.996Z,195
2018-03-04T09:01:37.075Z,215
2018-03-04T09:02:47.159Z,220
2018-03-04T09:03:57.264Z,230
2018-03-04T09:05:07.404Z,230
2018-03-04T09:06:17.005Z,235
2018-03-04T09:07:27.103Z,235
2018-03-04T09:08:36.650Z,240
2018-03-04T09:09:46.455Z,240
2018-03-04T09:10:56.254Z,225
2018-03-04T09:12:06.059Z,225
2018-03-04T09:13:15.605Z,225
2018-03-04T09:14:25.437Z,225
2018-03-04T09:15:34.981Z,225
2018-03-04T09:16:45.061Z,230
2018-03-04T09:17:54.891Z,230
2018-03-04T09:19:04.681Z,220
2018-03-04T09:20:14.766Z,220
2018-03-04T09:21:24.594Z,220
2018-03-04T09:22:34.431Z,240
2018-03-04T09:23:44.576Z,245
2018-03-04T09:24:54.405Z,250
2018-03-04T09:26:04.457Z,245
2018-03-04T09:27:14.081Z,240
2018-03-04T09:28:24.178Z,240
2018-03-04T09:29:34.002Z,235
2018-03-04T09:30:44.080Z,230
2018-03-04T09:31:53.786Z,235
2018-03-04T09:33:03.632Z,235
2018-03-04T09:34:13.930Z,240
2018-03-04T09:35:23.759Z,235
2018-03-04T09:36:33.988Z,235
2018-03-04T09:37:43.822Z,240
2018-03-04T09:38:53.680Z,240
2018-03-04T09:40:03.781Z,240
2018-03-04T09:41:13.605Z,245
2018-03-04T09:42:23.151Z,240
2018-03-04T09:43:32.974Z,230
2018-03-04T09:44:42.911Z,225
2018-03-04T09:45:53.012Z,225
2018-03-04T09:47:02.833Z,230
2018-03-04T09:48:12.935Z,225
2018-03-04T09:49:22.759Z,220
2018-03-04T09:50:32.347Z,225
2018-03-04T09:51:41.878Z,230
2018-03-04T09:52:51.471Z,235
2018-03-04T09:54:01.308Z,240
2018-03-04T09:55:11.419Z,250
2018-03-04T09:56:21.592Z,240
2018-03-04T09:57:31.683Z,250
2018-03-04T09:58:41.762Z,245
2018-03-04T09:59:51.871Z,250
2018-03-04T10:01:01.940Z,250
2018-03-04T10:02:11.821Z,255
2018-03-04T10:03:21.354Z,255
2018-03-04T10:04:31.434Z,255
2018-03-04T10:05:41.531Z,255
2018-03-04T10:06:52.322Z,260
2018-03-04T10:08:02.919Z,255
2018-03-04T10:09:13.067Z,255
2018-03-04T10:10:22.945Z,255
2018-03-04T10:11:33.397Z,245
2018-03-04T10:12:43.328Z,245
2018-03-04T10:13:53.265Z,245
2018-03-04T10:15:03.424Z,250
2018-03-04T10:16:13.221Z,260
2018-03-04T10:17:22.778Z,260
2018-03-04T10:18:32.070Z,265
2018-03-04T10:19:41.949Z,265
2018-03-04T10:20:51.772Z,270
2018-03-04T10:22:01.870Z,265
2018-03-04T10:23:11.938Z,260
2018-03-04T10:24:21.771Z,255
2018-03-04T10:25:31.591Z,250
2018-03-04T10:26:41.415Z,250
2018-03-04T10:27:51.252Z,250
2018-03-04T10:29:01.049Z,245
2018-03-04T10:30:11.114Z,235
2018-03-04T10:31:21.056Z,235
2018-03-04T10:32:30.628Z,235
2018-03-04T10:33:40.456Z,230
2018-03-04T10:34:50.528Z,230
2018-03-04T10:36:00.604Z,225
2018-03-04T10:37:10.756Z,230
2018-03-04T10:38:20.838Z,230
2018-03-04T10:39:30.923Z,230
2018-03-04T10:40:41.006Z,230
2018-03-04T10:41:51.076Z,235
2018-03-04T10:43:01.203Z,235
2018-03-04T10:44:11.299Z,235
2018-03-04T10:45:21.522Z,240
2018-03-04T10:46:31.391Z,245
2018-03-04T10:47:41.461Z,250
2018-03-04T10:48:51.611Z,255
2018-03-04T10:50:01.758Z,250
2018-03-04T10:51:11.068Z,255
2018-03-04T10:52:21.355Z,255
2018-03-04T10:53:31.458Z,245
2018-03-04T10:54:41.548Z,245
2018-03-04T10:55:51.638Z,255
2018-03-04T10:57:01.480Z,265
2018-03-04T10:58:11.308Z,270
2018-03-04T10:59:20.865Z,260
2018-03-04T11:00:31.004Z,260
2018-03-04T11:01:40.819Z,250
2018-03-04T11:02:50.925Z,255
2018-03-04T11:04:00.840Z,250
2018-03-04T11:05:10.384Z,250
2018-03-04T11:06:20.500Z,220
2018-03-04T11:07:30.611Z,215
2018-03-04T11:08:40.429Z,205
2018-03-04T11:09:50.394Z,200
2018-03-04T11:11:00.292Z,225
2018-03-04T11:12:10.132Z,215
2018-03-04T11:13:19.722Z,260
2018-03-04T11:14:29.254Z,260
2018-03-04T11:15:39.077Z,245
2018-03-04T11:16:49.247Z,260
2018-03-04T11:17:59.304Z,265
2018-03-04T11:19:09.126Z,270
2018-03-04T11:20:18.683Z,280
2018-03-04T11:21:28.557Z,285
2018-03-04T11:22:38.700Z,290
2018-03-04T11:23:48.776Z,295
2018-03-04T11:24:58.852Z,300
2018-03-04T11:26:08.922Z,295
2018-03-04T11:27:19.047Z,300
2018-03-04T11:28:28.903Z,305
2018-03-04T11:29:38.996Z,295
2018-03-04T11:30:49.171Z,290
2018-03-04T11:31:59.238Z,285
2018-03-04T11:33:09.335Z,285
2018-03-04T11:34:19.388Z,275
2018-03-04T11:35:29.195Z,275
2018-03-04T11:36:39.275Z,270
2018-03-04T11:37:48.816Z,265
2018-03-04T11:38:58.392Z,260
2018-03-04T11:40:08.543Z,255
2018-03-04T11:41:18.624Z,250
2018-03-04T11:42:28.153Z,250
2018-03-04T11:43:37.994Z,250
2018-03-04T11:44:48.101Z,245
2018-03-04T11:45:58.179Z,240
2018-03-04T11:47:08.252Z,235
2018-03-04T11:48:18.057Z,235
2018-03-04T11:49:28.167Z,225
2018-03-04T11:50:38.222Z,235
2018-03-04T11:51:48.360Z,230
2018-03-04T11:52:58.421Z,210
2018-03-04T11:54:07.975Z,200
2018-03-04T11:55:18.058Z,195
2018-03-04T11:56:27.601Z,160
2018-03-04T11:57:37.475Z,165
2018-03-04T11:58:47.309Z,155
2018-03-04T11:59:56.599Z,160
2018-03-04T12:01:06.676Z,160
2018-03-04T12:02:16.752Z,175
2018-03-04T12:03:26.317Z,195
2018-03-04T12:04:36.390Z,165
2018-03-04T12:05:46.480Z,175
2018-03-04T12:06:56.692Z,160
2018-03-04T12:08:06.858Z,165
2018-03-04T12:09:16.149Z,160
2018-03-04T12:10:25.948Z,160
2018-03-04T12:11:36.077Z,165
2018-03-04T12:12:45.931Z,150
2018-03-04T12:13:55.474Z,145
2018-03-04T12:15:05.608Z,155
2018-03-04T12:16:15.412Z,150
2018-03-04T12:17:25.491Z,150
2018-03-04T12:18:35.576Z,150
2018-03-04T12:19:45.417Z,145
2018-03-04T12:20:55.238Z,150
2018-03-04T12:22:05.066Z,155
2018-03-04T12:23:15.241Z,150
2018-03-04T12:24:25.354Z,160
2018-03-04T12:25:35.243Z,165
2018-03-04T12:26:45.080Z,170
2018-03-04T12:27:54.894Z,170
2018-03-04T12:29:05.039Z,175
2018-03-04T12:30:14.335Z,165
2018-03-04T12:31:24.155Z,155
2018-03-04T12:32:34.244Z,155
2018-03-04T12:33:44.064Z,160
2018-03-04T12:34:53.885Z,170
2018-03-04T12:36:03.742Z,170
2018-03-04T12:37:13.569Z,165
2018-03-04T12:38:23.389Z,160
2018-03-04T12:39:33.214Z,170
2018-03-04T12:40:43.286Z,150
2018-03-04T12:41:52.836Z,145
2018-03-04T12:43:02.929Z,150
2018-03-04T12:44:12.758Z,155
2018-03-04T12:45:22.853Z,165
2018-03-04T12:46:32.683Z,180
2018-03-04T12:47:42.650Z,180
2018-03-04T12:48:52.804Z,175
2018-03-04T12:50:02.680Z,175
2018-03-04T12:51:12.527Z,170
2018-03-04T12:52:22.632Z,170
2018-03-04T12:53:32.774Z,175
2018-03-04T12:54:42.836Z,175
2018-03-04T12:55:52.718Z,160
2018-03-04T12:57:02.893Z,160
2018-03-04T12:58:14.442Z,155
2018-03-04T12:59:24.522Z,150
2018-03-04T13:00:34.337Z,150
2018-03-04T13:01:44.179Z,160
2018-03-04T13:02:53.866Z,165
2018-03-04T13:04:03.940Z,170
2018-03-04T13:05:13.713Z,170
2018-03-04T13:06:23.268Z,180
2018-03-04T13:07:33.353Z,190
2018-03-04T13:08:43.447Z,185
2018-03-04T13:09:53.615Z,175
2018-03-04T13:11:03.502Z,175
2018-03-04T13:12:13.099Z,175
2018-03-04T13:13:22.676Z,175
2018-03-04T13:14:32.804Z,180
2018-03-04T13:15:43.049Z,185
2018-03-04T13:16:52.946Z,175
2018-03-04T13:18:02.824Z,165
2018-03-04T13:19:12.682Z,155
2018-03-04T13:20:22.563Z,160
2018-03-04T13:21:32.668Z,170
2018-03-04T13:22:42.757Z,180
2018-03-04T13:23:52.600Z,175
2018-03-04T13:25:02.435Z,175
2018-03-04T13:26:12.530Z,220
2018-03-04T13:27:22.337Z,200
2018-03-04T13:28:31.984Z,200
2018-03-04T13:29:41.552Z,200
2018-03-04T13:30:51.647Z,205
2018-03-04T13:32:01.751Z,200
2018-03-04T13:33:11.862Z,205
2018-03-04T13:34:21.595Z,185
2018-03-04T13:35:31.421Z,210
2018-03-04T13:36:41.553Z,215
2018-03-04T13:37:51.635Z,220
2018-03-04T13:39:01.445Z,215
2018-03-04T13:40:11.540Z,180
2018-03-04T13:41:21.636Z,180
2018-03-04T13:42:31.739Z,200
2018-03-04T13:43:41.555Z,200
2018-03-04T13:44:51.645Z,200
2018-03-04T13:46:01.788Z,195
2018-03-04T13:47:11.864Z,195
2018-03-04T13:48:21.930Z,170
2018-03-04T13:49:31.730Z,155
2018-03-04T13:50:41.825Z,155
2018-03-04T13:51:51.697Z,170
2018-03-04T13:53:01.783Z,155
2018-03-04T13:54:11.618Z,160
2018-03-04T13:55:21.450Z,175
2018-03-04T13:56:31.506Z,155
2018-03-04T13:57:41.599Z,140
2018-03-04T13:58:51.690Z,160
2018-03-04T14:00:01.766Z,160
2018-03-04T14:01:11.845Z,160
2018-03-04T14:02:21.368Z,160
2018-03-04T14:03:31.507Z,160
2018-03-04T14:04:41.583Z,155
2018-03-04T14:05:51.386Z,155
2018-03-04T14:07:01.446Z,155
2018-03-04T14:08:11.550Z,150
2018-03-04T14:09:21.604Z,150
2018-03-04T14:10:31.404Z,150
2018-03-04T14:11:41.472Z,150
2018-03-04T14:12:51.291Z,150
2018-03-04T14:14:01.355Z,150
2018-03-04T14:15:11.211Z,150
2018-03-04T14:16:20.786Z,145
2018-03-04T14:17:30.883Z,145
2018-03-04T14:18:40.969Z,145
2018-03-04T14:19:51.045Z,145
2018-03-04T14:21:01.131Z,145
2018-03-04T14:22:10.953Z,145
2018-03-04T14:23:21.042Z,145
2018-03-04T14:24:30.337Z,145
2018-03-04T14:25:40.406Z,140
2018-03-04T14:26:50.529Z,140
2018-03-04T14:28:00.601Z,140
2018-03-04T14:29:09.872Z,140
2018-03-04T14:30:19.990Z,140
2018-03-04T14:31:29.813Z,140
2018-03-04T14:32:39.642Z,140
2018-03-04T14:33:49.176Z,140
2018-03-04T14:34:59.245Z,135
2018-03-04T14:36:09.344Z,135
2018-03-04T14:37:19.423Z,135
2018-03-04T14:38:29.489Z,130
2018-03-04T14:39:38.783Z,130
2018-03-04T14:40:48.851Z,130
2018-03-04T14:41:58.916Z,125
2018-03-04T14:43:09.019Z,125
2018-03-04T14:44:19.162Z,125
2018-03-04T14:45:29.003Z,120
2018-03-04T14:46:39.099Z,120
2018-03-04T14:47:48.919Z,115
2018-03-04T14:48:58.449Z,115
2018-03-04T14:50:08.324Z,115
2018-03-04T14:51:18.131Z,115
2018-03-04T14:52:28.227Z,115
2018-03-04T14:53:38.040Z,115
2018-03-04T14:54:47.864Z,110
2018-03-04T14:55:57.717Z,110
2018-03-04T14:57:07.561Z,110
2018-03-04T14:58:17.648Z,105
2018-03-04T14:59:27.509Z,110
2018-03-04T15:00:37.656Z,105
2018-03-04T15:01:47.782Z,105
2018-03-04T15:02:57.596Z,100
2018-03-04T15:04:07.675Z,100
2018-03-04T15:05:17.537Z,100
2018-03-04T15:06:27.367Z,100
2018-03-04T15:07:37.176Z,95
2018-03-04T15:08:47.268Z,95
2018-03-04T15:09:57.069Z,90
2018-03-04T15:11:06.918Z,90
2018-03-04T15:12:16.724Z,90
2018-03-04T15:13:26.550Z,90
2018-03-04T15:14:36.637Z,90
2018-03-04T15:15:46.689Z,85
2018-03-04T15:16:57.011Z,85
2018-03-04T15:18:07.234Z,85
2018-03-04T15:19:16.502Z,80
2018-03-04T15:20:26.564Z,80
2018-03-04T15:21:36.631Z,85
2018-03-04T15:22:46.699Z,80
2018-03-04T15:23:56.503Z,80
2018-03-04T15:25:06.636Z,80
2018-03-04T15:26:16.727Z,80
2018-03-04T15:27:26.824Z,75
2018-03-04T15:28:36.637Z,75
2018-03-04T15:29:46.210Z,75
2018-03-04T15:30:56.366Z,70
2018-03-04T15:32:05.891Z,70
2018-03-04T15:33:15.447Z,70
2018-03-04T15:34:25.255Z,65
2018-03-04T15:35:34.813Z,65
2018-03-04T15:36:44.955Z,65
2018-03-04T15:37:55.059Z,65
2018-03-04T15:39:05.235Z,60
2018-03-04T15:40:14.797Z,60
2018-03-04T15:41:24.871Z,60
2018-03-04T15:42:34.740Z,60
2018-03-04T15:43:44.836Z,60
2018-03-04T15:44:54.978Z,55
2018-03-04T15:46:04.851Z,55
2018-03-04T15:47:14.642Z,50
2018-03-04T15:48:24.249Z,50
2018-03-04T15:49:34.108Z,50
2018-03-04T15:50:44.205Z,45
2018-03-04T15:51:54.043Z,45
2018-03-04T15:53:04.202Z,45
2018-03-04T15:54:13.832Z,45
2018-03-04T15:55:23.914Z,45
2018-03-04T15:56:33.727Z,45
2018-03-04T15:57:43.801Z,45
2018-03-04T15:58:53.888Z,40
2018-03-04T16:00:03.748Z,40
2018-03-04T16:01:13.846Z,40
2018-03-04T16:02:23.940Z,40
2018-03-04T16:03:33.734Z,35
2018-03-04T16:04:43.258Z,35
2018-03-04T16:05:52.857Z,35
2018-03-04T16:07:02.675Z,30
2018-03-04T16:08:12.762Z,30
2018-03-04T16:09:22.560Z,30
2018-03-04T16:10:32.651Z,30
2018-03-04T16:11:42.517Z,30
2018-03-04T16:12:52.576Z,25
2018-03-04T16:14:02.649Z,25
2018-03-04T16:15:12.471Z,25
2018-03-04T16:16:22.552Z,25
2018-03-04T16:17:32.371Z,20
2018-03-04T16:18:42.470Z,20
2018-03-04T16:19:52.297Z,20
2018-03-04T16:21:02.360Z,20
2018-03-04T16:22:12.178Z,15
2018-03-04T16:23:22.061Z,15
2018-03-04T16:24:31.710Z,15
2018-03-04T16:25:41.786Z,15
2018-03-04T16:26:51.875Z,15
2018-03-04T16:28:01.947Z,10
2018-03-04T16:29:12.061Z,10
2018-03-04T16:30:21.618Z,10
2018-03-04T16:31:31.679Z,10
2018-03-04T16:32:41.755Z,10
2018-03-04T16:33:51.422Z,5
2018-03-04T16:35:01.540Z,5
2018-03-04T16:36:11.615Z,5
2018-03-04T16:37:21.431Z,5
2018-03-04T16:38:31.266Z,5
2018-03-04T16:39:41.349Z,5
2018-03-04T16:40:51.436Z,5
2018-03-04T16:42:01.512Z,5
2018-03-04T16:43:11.361Z,0
2018-03-04T16:44:20.921Z,0
2018-03-04T16:45:30.754Z,0
2018-03-04T16:46:40.841Z,0
2018-03-04T16:47:50.909Z,0
2018-03-04T16:49:01.152Z,0
2018-03-04T16:50:10.441Z,0
2018-03-04T16:51:20.531Z,0
2018-03-04T16:52:30.587Z,0
2018-03-04T16:53:40.762Z,0
2018-03-04T16:54:50.584Z,0
2018-03-04T16:56:00.398Z,0
2018-03-04T16:57:10.515Z,0
2018-03-04T16:58:20.407Z,0
2018-03-04T16:59:30.529Z,0
2018-03-04T17:00:40.418Z,0
2018-03-04T17:01:50.570Z,0